createdAt,value
2022-08-04T00:01:47.497Z,24.37
2022-08-04T00:04:25.174Z,24.32
2022-08-04T00:07:12.872Z,24.32
2022-08-04T00:10:01.994Z,24.33
2022-08-04T00:12:37.870Z,24.31
2022-08-04T00:15:06.756Z,24.24
2022-08-04T00:17:59.299Z,24.23
2022-08-04T00:20:30.181Z,24.17
2022-08-04T00:22:57.575Z,24.16
2022-08-04T00:25:25.510Z,24.08
2022-08-04T00:27:52.275Z,24.04
2022-08-04T00:30:18.882Z,24.05
2022-08-04T00:32:45.846Z,24.02
2022-08-04T00:35:16.214Z,23.98
2022-08-04T00:37:45.490Z,24.00
2022-08-04T00:40:43.018Z,24.01
2022-08-04T00:43:24.602Z,23.85
2022-08-04T00:46:15.482Z,23.94
2022-08-04T00:48:51.183Z,23.91
2022-08-04T00:51:43.594Z,23.90
2022-08-04T00:54:26.849Z,23.87
2022-08-04T00:57:28.638Z,23.86
2022-08-04T01:00:14.812Z,23.74
2022-08-04T01:02:55.727Z,23.60
2022-08-04T01:05:25.309Z,23.67
2022-08-04T01:08:06.358Z,23.52
2022-08-04T01:10:59.762Z,23.60
2022-08-04T01:13:43.026Z,23.56
2022-08-04T01:16:13.364Z,23.54
2022-08-04T01:19:03.713Z,23.51
2022-08-04T01:21:30.104Z,23.53
2022-08-04T01:24:14.425Z,23.50
2022-08-04T01:27:01.408Z,23.51
2022-08-04T01:29:46.953Z,23.52
2022-08-04T01:32:37.767Z,23.48
2022-08-04T01:35:21.544Z,23.43
2022-08-04T01:37:54.631Z,23.40
2022-08-04T01:40:22.236Z,23.39
2022-08-04T01:42:53.163Z,23.35
2022-08-04T01:45:20.188Z,23.38
2022-08-04T01:47:54.577Z,23.29
2022-08-04T01:50:22.413Z,23.23
2022-08-04T01:52:52.716Z,23.27
2022-08-04T01:55:19.466Z,23.27
2022-08-04T01:57:53.203Z,23.24
2022-08-04T02:00:24.374Z,23.21
2022-08-04T02:02:51.515Z,23.16
2022-08-04T02:05:20.167Z,23.18
2022-08-04T02:08:08.207Z,23.04
2022-08-04T02:11:09.565Z,23.10
2022-08-04T02:13:53.228Z,23.01
2022-08-04T02:16:33.480Z,22.95
2022-08-04T02:19:03.032Z,22.92
2022-08-04T02:21:42.457Z,22.80
2022-08-04T02:24:14.819Z,22.90
2022-08-04T02:26:48.261Z,22.83
2022-08-04T02:29:23.274Z,22.90
2022-08-04T02:32:00.844Z,22.96
2022-08-04T02:34:48.391Z,23.03
2022-08-04T02:37:17.276Z,23.06
2022-08-04T02:39:48.972Z,23.08
2022-08-04T02:42:16.831Z,23.08
2022-08-04T02:44:43.610Z,23.07
2022-08-04T02:47:11.675Z,23.00
2022-08-04T02:49:41.268Z,22.95
2022-08-04T02:52:10.331Z,22.86
2022-08-04T02:54:40.747Z,22.91
2022-08-04T02:57:11.326Z,22.99
2022-08-04T03:00:14.987Z,23.00
2022-08-04T03:03:06.883Z,22.95
2022-08-04T03:06:11.419Z,22.85
2022-08-04T03:08:56.333Z,22.81
2022-08-04T03:11:39.853Z,22.75
2022-08-04T03:14:29.005Z,22.67
2022-08-04T03:17:17.474Z,22.66
2022-08-04T03:20:05.831Z,22.68
2022-08-04T03:23:13.504Z,22.66
2022-08-04T03:26:02.284Z,22.64
2022-08-04T03:28:37.488Z,22.60
2022-08-04T03:31:17.492Z,22.57
2022-08-04T03:34:02.316Z,22.55
2022-08-04T03:37:03.532Z,22.47
2022-08-04T03:39:36.157Z,22.45
2022-08-04T03:42:26.219Z,22.28
2022-08-04T03:45:33.866Z,22.39
2022-08-04T03:48:16.993Z,22.36
2022-08-04T03:51:40.314Z,22.36
2022-08-04T03:54:31.655Z,22.35
2022-08-04T03:57:18.039Z,22.34
2022-08-04T03:59:51.062Z,22.32
2022-08-04T04:02:34.768Z,22.24
2022-08-04T04:05:18.796Z,22.21
2022-08-04T04:08:13.759Z,22.07
2022-08-04T04:11:07.327Z,22.12
2022-08-04T04:14:04.059Z,22.08
2022-08-04T04:17:02.082Z,22.12
2022-08-04T04:19:47.022Z,22.10
2022-08-04T04:22:38.225Z,22.06
2022-08-04T04:25:07.567Z,21.96
2022-08-04T04:27:34.007Z,21.88
2022-08-04T04:30:06.783Z,21.80
2022-08-04T04:32:33.297Z,21.75
2022-08-04T04:35:18.301Z,21.68
2022-08-04T04:38:06.097Z,21.65
2022-08-04T04:40:47.952Z,21.66
2022-08-04T04:43:20.096Z,21.53
2022-08-04T04:46:10.757Z,21.64
2022-08-04T04:49:00.558Z,21.70
2022-08-04T04:51:51.926Z,21.74
2022-08-04T04:54:34.421Z,21.65
2022-08-04T04:57:07.767Z,21.83
2022-08-04T04:59:38.026Z,21.93
2022-08-04T05:02:42.530Z,22.01
2022-08-04T05:05:27.760Z,22.05
2022-08-04T05:08:45.100Z,22.13
2022-08-04T05:11:47.844Z,22.17
2022-08-04T05:14:36.439Z,22.30
2022-08-04T05:17:33.908Z,22.28
2022-08-04T05:20:14.113Z,22.41
2022-08-04T05:22:47.851Z,22.61
2022-08-04T05:25:21.215Z,22.66
2022-08-04T05:28:05.349Z,22.59
2022-08-04T05:30:37.003Z,22.75
2022-08-04T05:33:09.628Z,22.78
2022-08-04T05:36:16.168Z,22.72
2022-08-04T05:38:38.391Z,22.90
2022-08-04T05:41:06.708Z,22.99
2022-08-04T05:43:34.630Z,23.02
2022-08-04T05:46:01.793Z,23.04
2022-08-04T05:48:30.271Z,23.22
2022-08-04T05:51:00.802Z,23.36
2022-08-04T05:53:28.981Z,23.53
2022-08-04T05:55:58.984Z,23.66
2022-08-04T05:58:29.500Z,23.76
2022-08-04T06:00:56.935Z,23.87
2022-08-04T06:03:25.784Z,23.99
2022-08-04T06:05:53.497Z,24.08
2022-08-04T06:08:20.231Z,24.19
2022-08-04T06:10:49.347Z,24.25
2022-08-04T06:13:47.526Z,24.23
2022-08-04T06:16:18.088Z,24.45
2022-08-04T06:20:02.255Z,24.55
2022-08-04T06:21:48.826Z,24.74
2022-08-04T06:24:23.739Z,25.18
2022-08-04T06:26:51.501Z,25.64
2022-08-04T06:29:26.342Z,25.99
2022-08-04T06:32:27.886Z,26.29
2022-08-04T06:34:50.263Z,26.53
2022-08-04T06:37:18.643Z,26.95
2022-08-04T06:40:31.783Z,27.26
2022-08-04T06:42:55.622Z,27.71
2022-08-04T06:45:24.175Z,27.92
2022-08-04T06:47:51.780Z,28.04
2022-08-04T06:51:26.532Z,28.46
2022-08-04T06:53:07.478Z,28.71
2022-08-04T06:55:34.569Z,28.71
2022-08-04T06:58:03.565Z,28.47
2022-08-04T07:00:32.178Z,28.66
2022-08-04T07:02:59.570Z,28.88
2022-08-04T07:05:26.858Z,29.23
2022-08-04T07:07:56.517Z,29.49
2022-08-04T07:10:28.334Z,29.82
2022-08-04T07:12:59.334Z,30.24
2022-08-04T07:15:27.105Z,30.41
2022-08-04T07:17:55.102Z,30.39
2022-08-04T07:20:34.979Z,30.56
2022-08-04T07:23:06.889Z,30.38
2022-08-04T07:25:59.451Z,30.19
2022-08-04T07:28:29.320Z,30.45
2022-08-04T07:30:57.417Z,30.82
2022-08-04T07:33:25.888Z,31.00
2022-08-04T07:36:10.462Z,30.65
2022-08-04T07:38:50.669Z,30.40
2022-08-04T07:41:37.269Z,30.73
2022-08-04T07:44:04.771Z,31.15
2022-08-04T07:46:31.609Z,31.38
2022-08-04T07:49:00.730Z,31.10
2022-08-04T07:51:28.694Z,30.63
2022-08-04T07:53:57.200Z,30.67
2022-08-04T07:56:25.709Z,30.84
2022-08-04T07:58:52.414Z,31.16
2022-08-04T08:01:19.978Z,31.50
2022-08-04T08:03:48.013Z,31.77
2022-08-04T08:06:17.548Z,31.92
2022-08-04T08:09:12.072Z,32.03
2022-08-04T08:12:38.818Z,31.42
2022-08-04T08:14:31.976Z,30.78
2022-08-04T08:17:00.345Z,31.01
2022-08-04T08:19:26.892Z,31.31
2022-08-04T08:21:59.768Z,31.02
2022-08-04T08:24:31.020Z,31.02
2022-08-04T08:27:00.039Z,31.11
2022-08-04T08:29:27.257Z,31.32
2022-08-04T08:31:57.581Z,31.28
2022-08-04T08:34:28.045Z,31.55
2022-08-04T08:36:58.310Z,31.92
2022-08-04T08:39:31.143Z,32.00
2022-08-04T08:42:22.355Z,32.03
2022-08-04T08:45:08.915Z,31.64
2022-08-04T08:47:59.340Z,32.01
2022-08-04T08:51:07.427Z,32.35
2022-08-04T08:54:08.251Z,32.51
2022-08-04T08:56:54.358Z,32.72
2022-08-04T08:59:50.593Z,33.03
2022-08-04T09:02:45.027Z,33.31
2022-08-04T09:05:48.696Z,33.32
2022-08-04T09:08:39.932Z,33.59
2022-08-04T09:11:12.578Z,33.93
2022-08-04T09:13:55.191Z,34.16
2022-08-04T09:16:40.876Z,34.32
2022-08-04T09:19:39.044Z,33.56
2022-08-04T09:22:25.362Z,32.97
2022-08-04T09:25:26.128Z,32.25
2022-08-04T09:27:55.645Z,32.10
2022-08-04T09:30:32.644Z,32.24
2022-08-04T09:33:05.201Z,32.41
2022-08-04T09:35:54.827Z,32.46
2022-08-04T09:38:40.070Z,32.54
2022-08-04T09:41:48.354Z,32.60
2022-08-04T09:44:51.062Z,32.40
2022-08-04T09:47:24.908Z,32.29
2022-08-04T09:50:13.340Z,32.34
2022-08-04T09:52:49.723Z,32.37
2022-08-04T09:55:29.564Z,32.40
2022-08-04T09:58:05.512Z,32.45
2022-08-04T10:00:44.066Z,32.39
2022-08-04T10:03:19.663Z,32.47
2022-08-04T10:06:06.806Z,32.56
2022-08-04T10:09:01.770Z,32.83
2022-08-04T10:11:57.174Z,32.91
2022-08-04T10:15:07.260Z,33.04
2022-08-04T10:17:56.819Z,33.21
2022-08-04T10:20:56.728Z,33.27
2022-08-04T10:23:32.672Z,33.15
2022-08-04T10:26:34.917Z,33.30
2022-08-04T10:29:14.643Z,33.47
2022-08-04T10:32:01.311Z,33.74
2022-08-04T10:34:31.825Z,34.03
2022-08-04T10:37:14.107Z,34.34
2022-08-04T10:40:13.850Z,34.49
2022-08-04T10:42:50.223Z,34.47
2022-08-04T10:45:25.186Z,34.64
2022-08-04T10:48:02.668Z,34.71
2022-08-04T10:50:29.828Z,34.71
2022-08-04T10:53:05.663Z,34.68
2022-08-04T10:56:15.600Z,34.77
2022-08-04T10:58:55.538Z,34.96
2022-08-04T11:01:50.749Z,35.12
2022-08-04T11:04:37.660Z,35.15
2022-08-04T11:07:04.672Z,35.26
2022-08-04T11:09:33.791Z,35.38
2022-08-04T11:12:09.391Z,35.46
2022-08-04T11:14:51.958Z,35.46
2022-08-04T11:17:26.738Z,35.65
2022-08-04T11:20:39.899Z,35.67
2022-08-04T11:23:11.851Z,35.50
2022-08-04T11:25:53.113Z,35.60
2022-08-04T11:29:03.164Z,35.64
2022-08-04T11:31:39.405Z,35.88
2022-08-04T11:34:17.972Z,35.94
2022-08-04T11:36:49.694Z,36.07
2022-08-04T11:39:27.720Z,35.99
2022-08-04T11:42:10.329Z,36.11
2022-08-04T11:45:15.935Z,35.96
2022-08-04T11:47:55.349Z,35.86
2022-08-04T11:50:32.933Z,35.89
2022-08-04T11:53:00.191Z,35.93
2022-08-04T11:55:28.831Z,35.87
2022-08-04T11:57:56.961Z,35.66
2022-08-04T12:00:26.179Z,35.49
2022-08-04T12:02:58.694Z,35.39
2022-08-04T12:05:37.129Z,35.40
2022-08-04T12:08:10.188Z,35.51
2022-08-04T12:10:51.091Z,35.64
2022-08-04T12:13:50.304Z,35.70
2022-08-04T12:16:22.810Z,35.97
2022-08-04T12:18:57.890Z,36.23
2022-08-04T12:21:46.583Z,36.39
2022-08-04T12:24:20.744Z,36.25
2022-08-04T12:26:59.527Z,36.36
2022-08-04T12:29:31.456Z,36.41
2022-08-04T12:32:04.475Z,36.57
2022-08-04T12:34:50.143Z,36.81
2022-08-04T12:37:59.502Z,36.62
2022-08-04T12:40:30.763Z,36.78
2022-08-04T12:43:31.982Z,37.18
2022-08-04T12:46:07.488Z,37.49
2022-08-04T12:48:36.894Z,37.33
2022-08-04T12:51:04.072Z,37.34
2022-08-04T12:53:34.501Z,37.32
2022-08-04T12:56:26.562Z,37.14
2022-08-04T12:59:00.443Z,37.35
2022-08-04T13:02:06.777Z,37.62
2022-08-04T13:04:21.792Z,37.89
2022-08-04T13:07:01.817Z,38.02
2022-08-04T13:09:33.057Z,37.72
2022-08-04T13:12:04.907Z,37.21
2022-08-04T13:14:38.213Z,36.92
2022-08-04T13:17:06.499Z,36.80
2022-08-04T13:19:41.482Z,36.73
2022-08-04T13:22:09.002Z,36.69
2022-08-04T13:24:56.498Z,36.63
2022-08-04T13:27:26.831Z,36.61
2022-08-04T13:30:00.817Z,36.65
2022-08-04T13:32:31.613Z,36.73
2022-08-04T13:35:01.178Z,36.71
2022-08-04T13:37:33.503Z,36.69
2022-08-04T13:40:02.028Z,36.53
2022-08-04T13:42:29.660Z,36.54
2022-08-04T13:44:59.765Z,36.70
2022-08-04T13:47:31.753Z,36.81
2022-08-04T13:50:27.551Z,36.83
2022-08-04T13:52:56.566Z,36.98
2022-08-04T13:55:28.241Z,36.97
2022-08-04T13:58:14.375Z,36.91
2022-08-04T14:00:49.454Z,36.89
2022-08-04T14:03:26.576Z,36.88
2022-08-04T14:06:28.545Z,36.98
2022-08-04T14:09:00.074Z,37.20
2022-08-04T14:12:09.779Z,37.63
2022-08-04T14:14:30.221Z,38.00
2022-08-04T14:17:00.243Z,38.29
2022-08-04T14:19:47.805Z,38.33
2022-08-04T14:22:26.325Z,38.38
2022-08-04T14:25:01.165Z,38.26
2022-08-04T14:27:41.891Z,38.23
2022-08-04T14:30:31.065Z,37.99
2022-08-04T14:32:58.158Z,38.15
2022-08-04T14:35:38.335Z,38.18
2022-08-04T14:38:13.103Z,38.22
2022-08-04T14:40:42.476Z,38.26
2022-08-04T14:43:09.833Z,38.22
2022-08-04T14:45:38.532Z,37.81
2022-08-04T14:48:17.612Z,37.71
2022-08-04T14:50:46.084Z,37.86
2022-08-04T14:53:22.446Z,37.88
2022-08-04T14:55:51.819Z,38.00
2022-08-04T14:58:33.956Z,38.11
2022-08-04T15:01:11.510Z,38.29
2022-08-04T15:03:50.425Z,38.25
2022-08-04T15:06:22.639Z,38.45
2022-08-04T15:08:51.578Z,38.38
2022-08-04T15:11:22.753Z,38.36
2022-08-04T15:13:54.474Z,38.30
2022-08-04T15:16:22.464Z,38.15
2022-08-04T15:18:50.115Z,38.07
2022-08-04T15:21:17.397Z,38.07
2022-08-04T15:23:44.105Z,38.04
2022-08-04T15:26:19.514Z,38.03
2022-08-04T15:28:57.865Z,37.96
2022-08-04T15:32:05.838Z,37.69
2022-08-04T15:34:12.506Z,37.57
2022-08-04T15:36:44.697Z,37.82
2022-08-04T15:39:37.986Z,37.84
2022-08-04T15:42:32.827Z,37.79
2022-08-04T15:45:05.637Z,37.66
2022-08-04T15:47:32.437Z,37.32
2022-08-04T15:50:08.417Z,37.01
2022-08-04T15:53:01.435Z,36.78
2022-08-04T15:55:38.793Z,36.65
2022-08-04T15:58:13.615Z,36.59
2022-08-04T16:00:49.322Z,36.57
2022-08-04T16:03:58.551Z,36.66
2022-08-04T16:06:20.446Z,36.75
2022-08-04T16:08:51.981Z,36.73
2022-08-04T16:11:31.578Z,36.63
2022-08-04T16:13:58.701Z,36.68
2022-08-04T16:16:49.177Z,36.75
2022-08-04T16:19:51.889Z,36.91
2022-08-04T16:22:39.725Z,37.14
2022-08-04T16:25:08.396Z,37.31
2022-08-04T16:27:53.520Z,37.49
2022-08-04T16:30:20.144Z,37.61
2022-08-04T16:32:48.590Z,37.62
2022-08-04T16:35:19.695Z,37.52
2022-08-04T16:37:46.273Z,37.31
2022-08-04T16:40:36.314Z,37.29
2022-08-04T16:43:18.166Z,37.16
2022-08-04T16:45:50.911Z,37.06
2022-08-04T16:48:26.717Z,36.78
2022-08-04T16:50:56.295Z,36.38
2022-08-04T16:53:53.581Z,36.31
2022-08-04T16:56:15.042Z,36.45
2022-08-04T16:58:50.314Z,36.46
2022-08-04T17:01:32.155Z,36.48
2022-08-04T17:04:04.714Z,36.32
2022-08-04T17:06:36.224Z,36.28
2022-08-04T17:09:17.624Z,36.04
2022-08-04T17:11:46.582Z,35.88
2022-08-04T17:14:20.835Z,35.78
2022-08-04T17:16:47.404Z,35.74
2022-08-04T17:19:19.889Z,35.78
2022-08-04T17:21:47.158Z,35.83
2022-08-04T17:24:17.876Z,35.86
2022-08-04T17:26:51.764Z,35.82
2022-08-04T17:29:21.680Z,35.79
2022-08-04T17:31:49.611Z,35.81
2022-08-04T17:34:21.448Z,35.73
2022-08-04T17:36:48.244Z,35.68
2022-08-04T17:39:21.453Z,35.72
2022-08-04T17:41:49.557Z,35.70
2022-08-04T17:44:17.735Z,35.67
2022-08-04T17:46:48.254Z,35.61
2022-08-04T17:49:18.238Z,35.61
2022-08-04T17:51:59.853Z,35.44
2022-08-04T17:54:39.154Z,35.52
2022-08-04T17:57:19.947Z,35.49
2022-08-04T17:59:56.771Z,35.27
2022-08-04T18:02:32.708Z,35.29
2022-08-04T18:05:07.641Z,35.22
2022-08-04T18:08:40.151Z,35.12
2022-08-04T18:10:52.424Z,35.10
2022-08-04T18:13:24.457Z,34.82
2022-08-04T18:16:03.741Z,34.97
2022-08-04T18:18:30.462Z,34.95
2022-08-04T18:20:59.726Z,34.71
2022-08-04T18:23:32.160Z,34.62
2022-08-04T18:25:59.570Z,34.61
2022-08-04T18:28:32.973Z,34.47
2022-08-04T18:31:00.663Z,34.40
2022-08-04T18:33:41.032Z,34.29
2022-08-04T18:39:13.082Z,34.02
2022-08-04T18:42:01.770Z,33.86
2022-08-04T18:44:30.924Z,33.72
2022-08-04T18:47:22.571Z,33.66
2022-08-04T18:51:00.872Z,33.50
2022-08-04T18:52:31.973Z,33.39
2022-08-04T18:55:01.807Z,33.22
2022-08-04T18:57:58.757Z,32.99
2022-08-04T19:00:16.323Z,32.90
2022-08-04T19:02:46.461Z,32.83
2022-08-04T19:05:17.546Z,32.78
2022-08-04T19:08:11.492Z,32.67
2022-08-04T19:10:30.865Z,32.63
2022-08-04T19:12:58.751Z,32.52
2022-08-04T19:15:34.423Z,32.48
2022-08-04T19:18:02.078Z,32.41
2022-08-04T19:20:29.751Z,32.35
2022-08-04T19:24:10.638Z,32.29
2022-08-04T19:26:03.814Z,32.25
2022-08-04T19:28:36.549Z,32.20
2022-08-04T19:31:05.988Z,32.11
2022-08-04T19:33:58.929Z,31.93
2022-08-04T19:36:19.871Z,31.98
2022-08-04T19:38:46.626Z,31.87
2022-08-04T19:41:15.389Z,31.83
2022-08-04T19:43:46.731Z,31.77
2022-08-04T19:46:14.666Z,31.69
2022-08-04T19:48:44.474Z,31.56
2022-08-04T19:51:27.925Z,31.38
2022-08-04T19:54:02.867Z,31.45
2022-08-04T19:56:40.242Z,31.42
2022-08-04T19:59:11.072Z,31.23
2022-08-04T20:01:44.075Z,31.16
2022-08-04T20:04:11.655Z,31.24
2022-08-04T20:06:39.366Z,31.21
2022-08-04T20:09:25.679Z,31.20
2022-08-04T20:11:53.025Z,31.14
2022-08-04T20:14:22.864Z,31.17
2022-08-04T20:16:58.807Z,31.13
2022-08-04T20:19:25.950Z,31.04
2022-08-04T20:21:56.667Z,31.03
2022-08-04T20:24:38.987Z,30.95
2022-08-04T20:27:14.858Z,30.82
2022-08-04T20:29:49.032Z,30.87
2022-08-04T20:32:22.193Z,30.84
2022-08-04T20:34:50.555Z,30.79
2022-08-04T20:37:18.319Z,30.66
2022-08-04T20:39:45.213Z,30.65
2022-08-04T20:42:26.977Z,30.61
2022-08-04T20:44:55.518Z,30.52
2022-08-04T20:47:22.463Z,30.48
2022-08-04T20:49:49.370Z,30.46
2022-08-04T20:52:20.282Z,30.41
2022-08-04T20:54:48.651Z,30.31
2022-08-04T20:57:17.293Z,30.33
2022-08-04T20:59:59.401Z,30.31
2022-08-04T21:02:27.436Z,30.24
2022-08-04T21:04:54.232Z,30.20
2022-08-04T21:07:22.186Z,30.11
2022-08-04T21:09:50.748Z,30.20
2022-08-04T21:12:26.748Z,30.15
2022-08-04T21:15:01.125Z,30.11
2022-08-04T21:17:58.320Z,30.04
2022-08-04T21:20:27.467Z,30.07
2022-08-04T21:22:54.521Z,30.02
2022-08-04T21:25:22.383Z,29.86
2022-08-04T21:27:49.751Z,30.00
2022-08-04T21:30:25.419Z,29.90
2022-08-04T21:32:53.168Z,29.86
2022-08-04T21:35:30.850Z,29.80
2022-08-04T21:38:16.292Z,29.56
2022-08-04T21:40:58.512Z,29.57
2022-08-04T21:43:30.025Z,29.56
2022-08-04T21:46:09.486Z,29.53
2022-08-04T21:48:35.990Z,29.47
2022-08-04T21:51:57.141Z,29.42
2022-08-04T21:54:08.411Z,29.37
2022-08-04T21:56:35.898Z,29.29
2022-08-04T21:59:11.038Z,29.12
2022-08-04T22:01:50.337Z,29.19
2022-08-04T22:04:19.144Z,29.16
2022-08-04T22:09:41.177Z,28.97
2022-08-04T22:12:10.426Z,28.80
2022-08-04T22:14:39.466Z,28.28
2022-08-04T22:17:06.049Z,27.93
2022-08-04T22:19:40.332Z,27.54
2022-08-04T22:22:25.143Z,27.24
2022-08-04T22:24:53.255Z,26.97
2022-08-04T22:27:38.283Z,26.95
2022-08-04T22:30:13.684Z,27.06
2022-08-04T22:32:44.224Z,27.27
2022-08-04T22:35:42.945Z,27.56
2022-08-04T22:38:07.726Z,27.87
2022-08-04T22:40:44.248Z,28.07
2022-08-04T22:43:32.500Z,28.15
2022-08-04T22:46:01.860Z,28.19
2022-08-04T22:48:31.826Z,28.08
2022-08-04T22:50:59.276Z,28.12
2022-08-04T22:53:25.854Z,28.28
2022-08-04T22:56:06.349Z,28.32
2022-08-04T22:58:34.890Z,28.30
2022-08-04T23:01:01.656Z,28.27
2022-08-04T23:03:36.509Z,28.27
2022-08-04T23:06:10.929Z,28.22
2022-08-04T23:08:43.080Z,28.15
2022-08-04T23:11:13.355Z,28.10
2022-08-04T23:13:41.476Z,28.11
2022-08-04T23:16:09.881Z,28.13
2022-08-04T23:18:41.823Z,28.14
2022-08-04T23:21:10.380Z,28.12
2022-08-04T23:23:45.220Z,27.98
2022-08-04T23:26:21.841Z,28.07
2022-08-04T23:28:55.255Z,28.07
2022-08-04T23:31:21.923Z,28.06
2022-08-04T23:33:51.421Z,28.02
2022-08-04T23:36:29.885Z,27.85
2022-08-04T23:39:03.987Z,27.91
2022-08-04T23:41:55.182Z,27.88
2022-08-04T23:44:24.652Z,27.75
2022-08-04T23:47:02.969Z,27.85
2022-08-04T23:49:43.785Z,27.87
2022-08-04T23:52:15.818Z,27.85
2022-08-04T23:54:54.609Z,27.85
2022-08-04T23:57:21.990Z,27.82
2022-08-04T23:59:54.404Z,27.80
